aviador You're here:

PAIK Decoded Metar

in _UNIDENTIFIED
Report Time2018-04-23 22:56:00
UTC Time2018-04-23 23:07:51
Flight Rules vfr VFR
Wind080° at 11 kt
W.Decomp.*RWY 06: 11.0 kt HW 0.4 kt RCW
W.Rank080° ranks 3
Current wind is above 080° avg. (6.8)
Visibility9999 m
Phenomena:N/A
Clouds:Broken 095 Hf
Expected CloudBase > 4,800 ft AGL from Temp-Dew spread
Ceiling9,500 ft
Temp02°C (ISA -13)
Dew Point-10°C (41% RH)
AAT-5.0°C
QNH1003 hPa
Density Alt-991 ft
Elevation167 ft
Report Wrong Elevation
Raw Report
PAIK 232256Z AUTO 08011KT 10SM BKN095 02/M10 A2962 RMK AO2 SLP034
T00221100 FZRANO=

Extra information for PAIK:More info

Metar Taf Metar & Taf Last 4 Metars F.Rules Stats Wind Profile Meteogram Temp Stats Metar ALERT Operation Metar Decoded Social comments